Time;durP1;ratioP1;P1;durP2;ratioP2;P2;SDS_P1;SDS_P2;PMS_P1;PMS_P2;Temp;Humidity;BMP_temperature;BMP_pressure;BME280_temperature;BME280_humidity;BME280_pressure;Samples;Min_cycle;Max_cycle;Signal;HPM_P1;HPM_P2
2023/03/21 00:00:22;;;;;;;95.05;14.65;;;14.70;82.80;;;;;;5045741;28;20105;-57
2023/03/21 00:02:48;;;;;;;97.45;15.75;;;14.60;82.80;;;;;;5027645;28;20089;-57
2023/03/21 00:05:14;;;;;;;95.82;15.07;;;14.70;82.90;;;;;;5045576;28;20033;-57
2023/03/21 00:07:39;;;;;;;105.70;16.77;;;14.60;83.00;;;;;;5026947;28;20120;-57
2023/03/21 00:10:05;;;;;;;91.78;14.18;;;14.60;83.00;;;;;;5045379;28;20037;-57
2023/03/21 00:12:31;;;;;;;81.95;14.18;;;14.60;83.00;;;;;;5045324;28;20030;-57
2023/03/21 00:15:03;;;;;;;77.80;14.82;;;14.60;83.10;;;;;;5043786;28;20123;-57
2023/03/21 00:17:31;;;;;;;81.38;14.68;;;14.50;83.00;;;;;;5045239;28;20034;-57
2023/03/21 00:20:00;;;;;;;102.97;14.45;;;14.50;83.00;;;;;;5043757;28;20049;-57
2023/03/21 00:22:26;;;;;;;60.63;11.85;;;14.50;83.10;;;;;;5043684;28;20029;-57
2023/03/21 00:24:53;;;;;;;76.30;14.55;;;14.50;83.10;;;;;;5043933;28;20414;-57
2023/03/21 00:27:18;;;;;;;61.03;12.18;;;14.50;83.10;;;;;;5027550;28;20100;-57
2023/03/21 00:29:45;;;;;;;70.65;11.68;;;14.50;82.90;;;;;;5044304;28;20037;-57
2023/03/21 00:32:10;;;;;;;62.30;12.13;;;14.40;82.90;;;;;;5045520;28;20082;-57
2023/03/21 00:34:37;;;;;;;70.18;11.30;;;14.40;83.00;;;;;;5027321;28;20025;-57
2023/03/21 00:37:03;;;;;;;66.78;13.38;;;14.40;83.10;;;;;;5044071;28;20045;-56
2023/03/21 00:39:28;;;;;;;63.78;12.95;;;14.30;83.20;;;;;;5043844;28;20355;-57
2023/03/21 00:41:54;;;;;;;75.28;13.95;;;14.30;83.30;;;;;;5044960;28;20025;-57
2023/03/21 00:44:20;;;;;;;81.10;12.98;;;14.30;83.40;;;;;;5043821;28;20092;-57
2023/03/21 00:46:45;;;;;;;86.43;11.98;;;14.20;83.40;;;;;;5043731;28;20041;-57
2023/03/21 00:49:11;;;;;;;68.82;11.43;;;14.20;83.50;;;;;;5044808;28;20025;-56
2023/03/21 00:51:37;;;;;;;71.90;12.82;;;14.20;83.50;;;;;;5043260;28;20112;-57
2023/03/21 00:54:04;;;;;;;56.95;12.07;;;14.20;84.20;;;;;;5043559;28;20060;-57
2023/03/21 00:56:30;;;;;;;54.85;11.38;;;14.10;83.60;;;;;;5044844;28;20060;-56
2023/03/21 00:58:56;;;;;;;61.08;10.85;;;14.10;83.50;;;;;;5042877;28;20026;-57
2023/03/21 01:01:21;;;;;;;44.03;9.98;;;14.10;83.60;;;;;;5043660;28;20500;-56
2023/03/21 01:03:49;;;;;;;61.80;10.30;;;14.10;83.60;;;;;;5043565;28;20040;-57
2023/03/21 01:06:18;;;;;;;59.90;10.52;;;14.00;83.60;;;;;;5027343;28;20030;-57
2023/03/21 01:08:43;;;;;;;49.80;10.52;;;14.00;83.70;;;;;;5044998;28;20049;-57
2023/03/21 01:11:14;;;;;;;56.85;10.77;;;14.00;83.70;;;;;;5044950;28;20347;-57
2023/03/21 01:13:40;;;;;;;52.97;10.57;;;14.00;83.70;;;;;;5027199;28;20091;-57
2023/03/21 01:16:07;;;;;;;49.47;9.38;;;13.90;83.60;;;;;;5026790;28;20136;-57
2023/03/21 01:18:32;;;;;;;50.55;9.55;;;13.90;83.80;;;;;;5043668;28;20038;-57
2023/03/21 01:20:58;;;;;;;53.35;9.68;;;13.90;83.80;;;;;;5047321;28;20026;-57
2023/03/21 01:23:25;;;;;;;51.15;9.45;;;13.90;83.80;;;;;;5048745;28;20127;-57
2023/03/21 01:25:52;;;;;;;44.40;10.13;;;13.80;83.90;;;;;;5048536;28;20049;-56
2023/03/21 01:28:17;;;;;;;58.00;8.13;;;13.80;84.00;;;;;;5047007;28;20064;-57
2023/03/21 01:30:49;;;;;;;48.80;9.85;;;13.80;84.00;;;;;;5048291;28;20033;-56
2023/03/21 01:33:15;;;;;;;43.67;8.48;;;13.70;84.00;;;;;;5047006;28;20142;-57
2023/03/21 01:35:41;;;;;;;34.42;7.85;;;13.70;83.90;;;;;;5046825;28;20030;-57
2023/03/21 01:38:06;;;;;;;31.77;7.05;;;13.70;83.90;;;;;;5046888;28;20055;-57
2023/03/21 01:40:32;;;;;;;34.20;8.05;;;13.70;83.90;;;;;;5046670;28;20034;-57
2023/03/21 01:42:57;;;;;;;33.60;7.80;;;13.70;83.80;;;;;;5046724;28;20026;-57
2023/03/21 01:46:01;;;;;;;49.08;8.90;;;13.70;83.90;;;;;;5030037;28;20125;-57
2023/03/21 01:48:27;;;;;;;43.30;8.15;;;13.60;84.00;;;;;;5047928;28;20064;-57
2023/03/21 01:50:52;;;;;;;44.15;9.07;;;13.60;84.10;;;;;;5046556;28;20030;-57
2023/03/21 01:53:19;;;;;;;39.15;8.43;;;13.60;84.20;;;;;;5046662;28;20037;-57
2023/03/21 01:55:46;;;;;;;34.28;7.85;;;13.60;84.20;;;;;;5046473;28;20048;-57
2023/03/21 01:58:12;;;;;;;37.03;7.65;;;13.50;84.20;;;;;;5046366;28;20482;-56
2023/03/21 02:00:40;;;;;;;42.88;7.95;;;13.50;84.20;;;;;;5046564;28;20044;-57
2023/03/21 02:03:07;;;;;;;35.08;7.78;;;13.50;84.30;;;;;;5046516;28;20052;-57
2023/03/21 02:05:59;;;;;;;42.30;8.38;;;13.50;84.40;;;;;;5029858;28;20033;-56
2023/03/21 02:08:25;;;;;;;37.47;8.43;;;13.40;84.40;;;;;;5046285;28;20037;-57
2023/03/21 02:10:50;;;;;;;37.03;7.53;;;13.40;85.10;;;;;;5046241;28;20030;-57
2023/03/21 02:13:16;;;;;;;37.63;7.68;;;13.30;85.00;;;;;;5046335;28;20083;-56
2023/03/21 02:15:50;;;;;;;36.08;8.40;;;13.40;84.50;;;;;;5029578;28;20038;-57
2023/03/21 02:18:29;;;;;;;32.03;7.20;;;13.40;84.40;;;;;;5046177;28;20093;-57
2023/03/21 02:21:13;;;;;;;38.30;8.15;;;13.30;84.50;;;;;;5045985;28;20514;-56
2023/03/21 02:23:58;;;;;;;34.58;7.07;;;13.30;84.60;;;;;;5047538;28;20055;-56
2023/03/21 02:26:47;;;;;;;28.55;7.35;;;13.20;84.60;;;;;;5047451;28;20036;-56
2023/03/21 02:29:31;;;;;;;43.55;6.78;;;13.20;84.60;;;;;;5046013;28;20075;-56
2023/03/21 02:32:03;;;;;;;31.10;7.32;;;13.20;84.70;;;;;;5046550;28;20025;-56
2023/03/21 02:34:51;;;;;;;29.90;7.43;;;13.20;84.80;;;;;;5045753;28;20033;-57
2023/03/21 02:37:31;;;;;;;24.08;6.18;;;13.20;84.80;;;;;;5047258;28;20034;-56
2023/03/21 02:40:12;;;;;;;28.80;7.70;;;13.20;84.80;;;;;;5045659;28;20049;-56
2023/03/21 02:42:43;;;;;;;26.00;7.55;;;13.10;84.70;;;;;;5045723;28;20378;-56
2023/03/21 02:45:19;;;;;;;27.38;7.57;;;13.10;84.70;;;;;;5045606;28;20029;-57
2023/03/21 02:47:51;;;;;;;;;;;13.10;84.80;;;;;;5046127;28;20044;-56
2023/03/21 02:50:16;;;;;;;29.80;6.97;;;13.10;84.90;;;;;;5045586;28;19916;-56
2023/03/21 02:52:43;;;;;;;25.08;7.05;;;13.10;85.00;;;;;;5046881;28;20033;-57
2023/03/21 02:55:12;;;;;;;21.70;7.03;;;13.10;85.10;;;;;;5045960;28;20040;-57
2023/03/21 02:57:40;;;;;;;31.85;7.25;;;13.10;85.20;;;;;;5045270;28;20033;-56
2023/03/21 03:00:11;;;;;;;17.65;5.75;;;13.00;85.90;;;;;;5028930;28;20033;-56
2023/03/21 03:02:36;;;;;;;35.95;7.45;;;13.00;85.50;;;;;;5045464;28;20089;-57
2023/03/21 03:05:11;;;;;;;26.45;6.13;;;13.00;85.50;;;;;;5046512;28;20029;-57
2023/03/21 03:08:07;;;;;;;24.65;6.70;;;13.00;85.50;;;;;;5045437;28;20056;-57
2023/03/21 03:10:51;;;;;;;26.20;6.70;;;12.90;85.40;;;;;;5045251;28;20105;-56
2023/03/21 03:13:32;;;;;;;20.92;6.50;;;12.90;85.50;;;;;;5045263;28;20026;-56
2023/03/21 03:16:25;;;;;;;26.52;7.10;;;12.90;85.40;;;;;;5044935;28;20040;-57
2023/03/21 03:18:52;;;;;;;27.15;7.38;;;12.90;85.30;;;;;;5045300;28;20060;-56
2023/03/21 03:21:27;;;;;;;25.70;7.10;;;12.90;85.20;;;;;;5044890;28;20029;-57
2023/03/21 03:24:05;;;;;;;22.73;7.43;;;12.90;85.20;;;;;;5044788;28;20034;-57
2023/03/21 03:26:44;;;;;;;20.10;7.28;;;12.90;85.30;;;;;;5045107;28;20034;-57
2023/03/21 03:29:13;;;;;;;22.05;7.13;;;12.80;85.30;;;;;;5044864;28;20043;-57
2023/03/21 03:31:43;;;;;;;17.00;6.65;;;12.80;85.40;;;;;;5044871;28;20053;-57
2023/03/21 03:34:11;;;;;;;27.88;7.22;;;12.80;85.50;;;;;;5044889;28;20089;-56
2023/03/21 03:36:39;;;;;;;18.85;6.38;;;12.80;85.70;;;;;;5044256;28;20124;-56
2023/03/21 03:39:07;;;;;;;18.75;7.05;;;12.80;85.70;;;;;;5044954;28;20060;-56
2023/03/21 03:41:36;;;;;;;22.02;6.60;;;12.80;85.90;;;;;;5027993;28;20080;-57
2023/03/21 03:44:02;;;;;;;17.90;5.80;;;12.70;85.90;;;;;;5043960;28;20030;-57
2023/03/21 03:46:47;;;;;;;19.17;6.63;;;12.70;86.10;;;;;;5044551;28;20061;-56
2023/03/21 03:49:15;;;;;;;19.33;6.68;;;12.70;86.20;;;;;;5045803;28;20032;-56
2023/03/21 03:52:00;;;;;;;25.27;6.90;;;12.70;86.20;;;;;;5045746;28;20060;-57
2023/03/21 03:54:41;;;;;;;22.50;6.47;;;12.70;86.30;;;;;;5045857;28;20109;-56
2023/03/21 03:57:07;;;;;;;14.23;5.38;;;12.70;86.30;;;;;;5044317;28;20034;-56
2023/03/21 03:59:35;;;;;;;14.38;5.75;;;12.70;86.50;;;;;;5044481;28;20037;-56
2023/03/21 04:02:02;;;;;;;20.75;6.22;;;12.60;86.40;;;;;;5044319;28;20031;-57
2023/03/21 04:04:28;;;;;;;17.85;6.55;;;12.60;86.40;;;;;;5045362;28;20025;-56
2023/03/21 04:06:54;;;;;;;22.20;6.82;;;12.60;86.50;;;;;;5044010;28;20082;-57
2023/03/21 04:09:20;;;;;;;18.63;6.40;;;12.60;86.50;;;;;;5043758;28;20090;-56
2023/03/21 04:11:45;;;;;;;15.27;6.22;;;12.60;86.60;;;;;;5044021;28;20390;-56
2023/03/21 04:14:11;;;;;;;18.27;7.28;;;12.60;86.50;;;;;;5044057;28;20026;-57
2023/03/21 04:16:37;;;;;;;17.35;6.22;;;12.60;86.60;;;;;;5043803;28;20034;-57
2023/03/21 04:19:03;;;;;;;14.95;6.57;;;12.50;86.90;;;;;;5044117;28;20030;-56
2023/03/21 04:21:28;;;;;;;18.60;5.90;;;12.50;86.70;;;;;;5043813;28;20029;-57
2023/03/21 04:23:54;;;;;;;17.92;7.00;;;12.50;86.70;;;;;;5043882;28;20048;-56
2023/03/21 04:26:21;;;;;;;16.77;7.85;;;12.50;87.10;;;;;;5045264;28;20038;-56
2023/03/21 04:28:47;;;;;;;17.08;7.65;;;12.40;86.40;;;;;;5043735;28;20030;-56
2023/03/21 04:31:13;;;;;;;34.08;8.55;;;12.40;86.40;;;;;;5043743;28;20088;-56
2023/03/21 04:33:39;;;;;;;26.75;8.40;;;12.40;86.30;;;;;;5027167;28;20025;-56
2023/03/21 04:36:05;;;;;;;29.05;8.45;;;12.40;86.30;;;;;;5043488;28;20053;-56
2023/03/21 04:38:32;;;;;;;30.20;8.45;;;12.40;86.40;;;;;;5045149;28;20025;-57
2023/03/21 04:40:58;;;;;;;25.95;8.68;;;12.30;86.40;;;;;;5043429;28;20510;-56
2023/03/21 04:43:24;;;;;;;25.52;8.52;;;12.30;86.40;;;;;;5044763;28;20033;-57
2023/03/21 04:45:50;;;;;;;33.47;8.93;;;12.30;86.40;;;;;;5043550;28;20029;-57
2023/03/21 04:48:18;;;;;;;18.83;7.28;;;12.30;86.40;;;;;;5043792;28;20057;-56
2023/03/21 04:50:44;;;;;;;27.13;7.22;;;12.30;86.40;;;;;;5044584;28;20036;-56
2023/03/21 04:53:10;;;;;;;29.85;7.15;;;12.30;86.40;;;;;;5043374;28;20089;-57
2023/03/21 04:55:35;;;;;;;26.02;7.60;;;12.20;86.40;;;;;;5044529;28;20061;-57
2023/03/21 04:58:02;;;;;;;20.63;6.38;;;12.20;86.40;;;;;;5044109;28;20056;-57
2023/03/21 05:00:28;;;;;;;22.42;7.50;;;12.20;86.40;;;;;;5043584;28;20039;-56
2023/03/21 05:02:53;;;;;;;29.85;7.32;;;12.20;86.40;;;;;;5043496;28;20021;-57
2023/03/21 05:05:19;;;;;;;26.27;7.15;;;12.20;86.30;;;;;;5044654;28;20033;-57
2023/03/21 05:07:44;;;;;;;20.17;6.20;;;12.20;86.30;;;;;;5043373;28;20206;-56
2023/03/21 05:10:10;;;;;;;28.65;7.93;;;12.20;86.30;;;;;;5043406;28;20392;-56
2023/03/21 05:12:36;;;;;;;23.27;6.95;;;12.10;86.30;;;;;;5043487;28;20090;-56
2023/03/21 05:15:02;;;;;;;25.70;6.60;;;12.10;86.30;;;;;;5043139;28;20453;-56
2023/03/21 05:17:28;;;;;;;19.02;6.20;;;12.10;86.30;;;;;;5043322;28;20423;-57
2023/03/21 05:19:55;;;;;;;20.15;6.72;;;12.10;86.40;;;;;;5043102;28;20109;-56
2023/03/21 05:22:21;;;;;;;18.58;6.43;;;12.00;86.40;;;;;;5044393;28;20022;-57
2023/03/21 05:24:49;;;;;;;20.23;5.93;;;12.00;86.50;;;;;;5043195;28;20363;-57
2023/03/21 05:27:33;;;;;;;19.60;6.47;;;12.00;86.50;;;;;;5044506;28;20109;-56
2023/03/21 05:30:07;;;;;;;25.30;6.18;;;11.90;86.50;;;;;;5043101;28;20029;-56
2023/03/21 05:32:33;;;;;;;17.58;5.47;;;11.90;86.50;;;;;;5043118;28;20034;-56
2023/03/21 05:34:58;;;;;;;18.25;5.50;;;11.90;86.60;;;;;;5042748;28;20052;-56
2023/03/21 05:37:24;;;;;;;19.60;5.10;;;11.90;86.60;;;;;;5044507;28;20079;-56
2023/03/21 05:39:50;;;;;;;20.85;6.28;;;11.90;86.80;;;;;;5042982;28;20109;-57
2023/03/21 05:42:17;;;;;;;17.98;5.38;;;11.80;86.90;;;;;;5043022;28;20033;-56
2023/03/21 05:44:43;;;;;;;23.60;5.38;;;11.80;87.10;;;;;;5044387;28;20033;-57
2023/03/21 05:47:08;;;;;;;16.88;5.50;;;11.90;87.20;;;;;;5042994;28;20040;-56
2023/03/21 05:49:34;;;;;;;15.05;4.60;;;11.80;87.40;;;;;;5044403;28;20030;-56
2023/03/21 05:51:59;;;;;;;20.42;5.57;;;11.80;87.40;;;;;;5042700;28;20044;-57
2023/03/21 05:54:25;;;;;;;15.30;4.53;;;11.80;87.40;;;;;;5044102;28;20029;-56
2023/03/21 05:56:50;;;;;;;11.82;4.78;;;11.80;87.60;;;;;;5042891;28;20085;-56
2023/03/21 05:59:16;;;;;;;12.75;4.20;;;11.70;88.20;;;;;;5044170;28;20029;-57
2023/03/21 06:01:42;;;;;;;11.82;4.25;;;11.80;87.50;;;;;;5042860;28;20021;-56
2023/03/21 06:04:07;;;;;;;14.98;5.15;;;11.80;87.40;;;;;;5042810;28;20029;-57
2023/03/21 06:06:33;;;;;;;15.18;4.68;;;11.80;87.20;;;;;;5044722;28;20112;-56
2023/03/21 06:08:59;;;;;;;14.02;4.70;;;11.80;87.10;;;;;;5046432;28;20057;-56
2023/03/21 06:11:28;;;;;;;14.88;5.25;;;11.70;87.00;;;;;;5046332;28;20034;-56
2023/03/21 06:13:54;;;;;;;14.88;4.65;;;11.70;87.10;;;;;;5046447;28;20044;-56
2023/03/21 06:16:19;;;;;;;20.75;5.55;;;11.70;87.90;;;;;;5048436;28;20354;-56
2023/03/21 06:18:45;;;;;;;16.70;4.93;;;11.70;87.20;;;;;;5046231;28;20040;-57
2023/03/21 06:21:11;;;;;;;16.02;4.88;;;11.70;87.30;;;;;;5045983;28;20516;-57
2023/03/21 06:23:36;;;;;;;18.88;4.93;;;11.70;87.20;;;;;;5047370;28;20394;-56
2023/03/21 06:26:02;;;;;;;14.98;4.75;;;11.70;87.30;;;;;;5046065;28;20025;-57
2023/03/21 06:28:28;;;;;;;12.45;4.55;;;11.60;87.20;;;;;;5046180;28;20026;-56
2023/03/21 06:30:53;;;;;;;22.15;5.13;;;11.60;87.20;;;;;;5045812;28;20029;-56
2023/03/21 06:33:19;;;;;;;12.63;4.45;;;11.60;87.30;;;;;;5047484;28;20095;-56
2023/03/21 06:35:53;;;;;;;11.43;5.03;;;11.60;87.20;;;;;;5047489;28;20049;-56
2023/03/21 06:38:18;;;;;;;17.73;4.93;;;11.60;87.30;;;;;;5047295;28;20040;-57
2023/03/21 06:40:47;;;;;;;11.68;4.15;;;11.60;87.30;;;;;;5029114;28;20029;-56
2023/03/21 06:43:13;;;;;;;11.50;4.53;;;11.60;87.20;;;;;;5045662;28;20093;-56
2023/03/21 06:45:38;;;;;;;12.68;4.25;;;11.60;87.20;;;;;;5045402;28;20033;-57
2023/03/21 06:48:04;;;;;;;16.63;3.85;;;11.60;87.10;;;;;;5045678;28;20025;-57
2023/03/21 06:50:30;;;;;;;11.05;4.03;;;11.60;87.00;;;;;;5046855;28;20037;-56
2023/03/21 06:52:56;;;;;;;9.25;3.97;;;11.60;87.00;;;;;;5045530;28;20038;-56
2023/03/21 06:55:25;;;;;;;7.88;3.83;;;11.60;87.10;;;;;;5028892;28;20029;-57
2023/03/21 06:57:54;;;;;;;16.42;3.83;;;11.50;87.10;;;;;;5046916;28;20034;-57
2023/03/21 07:00:20;;;;;;;8.48;3.42;;;11.50;87.10;;;;;;5045371;28;20030;-56
2023/03/21 07:02:46;;;;;;;9.50;4.00;;;11.50;87.00;;;;;;5046377;28;20476;-56
2023/03/21 07:05:11;;;;;;;11.02;4.40;;;11.50;87.10;;;;;;5048430;28;20025;-56
2023/03/21 07:07:38;;;;;;;9.80;3.83;;;11.50;87.20;;;;;;5066647;28;20047;-57
2023/03/21 07:10:04;;;;;;;19.55;4.15;;;11.50;87.20;;;;;;5065175;28;20033;-56
2023/03/21 07:12:32;;;;;;;11.27;4.03;;;11.50;87.20;;;;;;5038984;28;20063;-56
2023/03/21 07:15:01;;;;;;;10.18;4.05;;;11.50;87.20;;;;;;5046512;28;20029;-56
2023/03/21 07:17:27;;;;;;;9.10;4.13;;;11.50;87.10;;;;;;5044853;28;20025;-56
2023/03/21 07:19:53;;;;;;;9.25;3.58;;;11.50;87.10;;;;;;5044713;28;20037;-56
2023/03/21 07:22:18;;;;;;;14.32;4.20;;;11.50;87.00;;;;;;5044744;28;20036;-59
2023/03/21 07:24:47;;;;;;;8.93;3.53;;;11.50;87.00;;;;;;5046228;28;20056;-59
2023/03/21 07:27:13;;;;;;;10.65;3.63;;;11.50;87.00;;;;;;5045204;28;20057;-59
2023/03/21 07:29:39;;;;;;;8.50;3.90;;;11.50;87.00;;;;;;5044408;28;20033;-56
2023/03/21 07:32:05;;;;;;;10.57;3.60;;;11.50;87.10;;;;;;5046270;28;20033;-56
2023/03/21 07:34:32;;;;;;;11.30;4.10;;;11.50;87.20;;;;;;5045669;28;20176;-56
2023/03/21 07:36:58;;;;;;;19.77;4.28;;;11.50;87.20;;;;;;5044976;28;20033;-56
2023/03/21 07:39:24;;;;;;;19.20;4.63;;;11.50;87.30;;;;;;5042856;28;20472;-57
2023/03/21 07:41:50;;;;;;;10.57;4.13;;;11.50;87.30;;;;;;5044252;28;20490;-56
2023/03/21 07:44:16;;;;;;;12.68;3.80;;;11.50;87.30;;;;;;5044361;28;20171;-56
2023/03/21 07:46:41;;;;;;;13.88;4.38;;;11.50;87.20;;;;;;5045934;28;20034;-56
2023/03/21 07:49:07;;;;;;;15.85;4.35;;;11.50;87.30;;;;;;5044593;28;20025;-56
2023/03/21 07:51:34;;;;;;;14.52;4.40;;;11.50;87.30;;;;;;5052844;28;20101;-56
2023/03/21 07:54:00;;;;;;;16.13;4.75;;;11.50;87.30;;;;;;5075758;28;20030;-56
2023/03/21 07:56:27;;;;;;;16.80;4.45;;;11.50;87.40;;;;;;5051326;28;20025;-56
2023/03/21 07:58:52;;;;;;;14.52;4.20;;;11.50;87.30;;;;;;5046339;28;20107;-57
2023/03/21 08:01:18;;;;;;;11.25;4.50;;;11.50;87.30;;;;;;5044231;28;20022;-57
2023/03/21 08:03:43;;;;;;;16.58;4.88;;;11.50;87.30;;;;;;5045427;28;20056;-56
2023/03/21 08:06:09;;;;;;;37.45;6.07;;;11.60;87.70;;;;;;5045033;28;20029;-57
2023/03/21 08:08:35;;;;;;;18.63;4.47;;;11.60;87.60;;;;;;5010754;28;20048;-56
2023/03/21 08:11:00;;;;;;;26.38;5.35;;;11.50;87.50;;;;;;5042492;28;20029;-57
2023/03/21 08:13:26;;;;;;;25.80;5.88;;;11.60;87.50;;;;;;5043751;28;20036;-57
2023/03/21 08:15:52;;;;;;;35.60;7.03;;;11.60;87.70;;;;;;5043911;28;20394;-56
2023/03/21 08:18:17;;;;;;;55.10;8.00;;;11.60;87.90;;;;;;5060516;28;20024;-56
2023/03/21 08:20:43;;;;;;;45.70;6.97;;;11.60;88.40;;;;;;5045182;28;20032;-56
2023/03/21 08:23:08;;;;;;;84.50;10.95;;;11.60;88.10;;;;;;5027305;28;20036;-57
2023/03/21 08:25:34;;;;;;;44.78;9.10;;;11.70;88.10;;;;;;5077274;28;20031;-56
2023/03/21 08:28:00;;;;;;;65.97;8.98;;;11.70;88.00;;;;;;5044756;28;20030;-57
2023/03/21 08:30:26;;;;;;;66.28;9.43;;;11.80;88.10;;;;;;5043690;28;20045;-56
2023/03/21 08:32:56;;;;;;;64.93;9.15;;;11.80;88.70;;;;;;5060382;28;20056;-56
2023/03/21 08:35:22;;;;;;;65.03;9.32;;;11.80;88.70;;;;;;5060706;28;20037;-56
2023/03/21 08:37:47;;;;;;;35.10;6.28;;;11.80;88.40;;;;;;5043386;28;20029;-57
2023/03/21 08:40:14;;;;;;;27.98;6.53;;;11.80;88.00;;;;;;5043244;28;20037;-56
2023/03/21 08:42:40;;;;;;;52.38;7.90;;;11.80;87.70;;;;;;5042942;28;20524;-56
2023/03/21 08:45:07;;;;;;;35.05;7.30;;;11.80;88.00;;;;;;5043317;28;20026;-57
2023/03/21 08:47:32;;;;;;;45.53;7.18;;;11.90;88.20;;;;;;5043411;28;20048;-56
2023/03/21 08:49:58;;;;;;;117.28;12.48;;;11.90;87.90;;;;;;5044303;28;20431;-57
2023/03/21 08:52:24;;;;;;;75.55;8.80;;;11.90;87.90;;;;;;5043044;28;20083;-57
2023/03/21 08:54:50;;;;;;;54.78;8.13;;;11.90;87.90;;;;;;5044960;28;20121;-56
2023/03/21 08:57:15;;;;;;;68.38;9.48;;;12.00;88.10;;;;;;5044337;28;20041;-57
2023/03/21 08:59:41;;;;;;;70.20;8.60;;;12.00;88.40;;;;;;5043397;28;20034;-56
2023/03/21 09:02:07;;;;;;;28.98;6.40;;;12.00;88.30;;;;;;5043505;28;20081;-56
2023/03/21 09:04:32;;;;;;;53.67;7.78;;;12.10;88.40;;;;;;5043556;28;20109;-57
2023/03/21 09:07:00;;;;;;;47.45;7.40;;;12.10;88.50;;;;;;5043246;28;20132;-56
2023/03/21 09:09:28;;;;;;;69.97;10.68;;;12.10;88.50;;;;;;5026986;28;20045;-56
2023/03/21 09:11:54;;;;;;;67.97;9.48;;;12.20;89.00;;;;;;5042687;28;20486;-57
2023/03/21 09:14:19;;;;;;;48.60;7.78;;;12.20;88.40;;;;;;5043126;28;20044;-57
2023/03/21 09:16:45;;;;;;;36.15;7.28;;;12.20;88.60;;;;;;5044545;28;20040;-56
2023/03/21 09:19:11;;;;;;;42.30;7.00;;;12.20;88.40;;;;;;5026552;28;20116;-57
2023/03/21 09:21:37;;;;;;;39.13;6.45;;;12.30;88.30;;;;;;5026907;28;20022;-57
2023/03/21 09:24:05;;;;;;;52.13;7.32;;;12.40;88.40;;;;;;5042834;28;20125;-57
2023/03/21 09:26:31;;;;;;;38.28;7.18;;;12.30;88.00;;;;;;5042879;28;20037;-57
2023/03/21 09:28:57;;;;;;;46.28;7.68;;;12.40;87.80;;;;;;5044855;28;20056;-57
2023/03/21 09:31:23;;;;;;;45.03;7.05;;;12.40;87.80;;;;;;5027192;28;20125;-57
2023/03/21 09:33:50;;;;;;;60.03;8.20;;;12.50;87.90;;;;;;5010253;28;20040;-57
2023/03/21 09:36:17;;;;;;;40.75;7.30;;;12.50;88.10;;;;;;5042779;28;20041;-57
2023/03/21 09:38:44;;;;;;;39.17;7.55;;;12.50;88.20;;;;;;5026667;28;20038;-57
2023/03/21 09:41:35;;;;;;;47.85;7.65;;;12.60;88.30;;;;;;5047067;28;20116;-56
2023/03/21 09:44:09;;;;;;;49.53;9.07;;;12.60;88.30;;;;;;5047843;28;20103;-57
2023/03/21 09:46:44;;;;;;;72.75;9.13;;;12.70;88.30;;;;;;5048169;28;20033;-57
2023/03/21 09:49:31;;;;;;;50.10;8.77;;;12.70;88.10;;;;;;5028075;28;20045;-57
2023/03/21 09:52:04;;;;;;;49.00;7.50;;;12.80;88.00;;;;;;5043904;28;20029;-56
2023/03/21 09:54:32;;;;;;;53.22;8.20;;;12.80;88.00;;;;;;5044333;28;20025;-57
2023/03/21 09:57:01;;;;;;;49.15;7.88;;;12.80;87.90;;;;;;5044793;28;20029;-57
2023/03/21 09:59:30;;;;;;;51.40;8.13;;;12.90;87.80;;;;;;5051671;28;20203;-57
2023/03/21 10:01:57;;;;;;;45.30;7.63;;;12.90;88.00;;;;;;5046839;28;20049;-57
2023/03/21 10:04:23;;;;;;;54.40;8.73;;;13.00;88.00;;;;;;5042884;28;20041;-57
2023/03/21 10:07:09;;;;;;;46.05;7.97;;;13.00;87.90;;;;;;5034515;28;20112;-57
2023/03/21 10:09:37;;;;;;;60.60;7.70;;;13.10;87.80;;;;;;5029746;28;20041;-57
2023/03/21 10:12:13;;;;;;;48.22;6.90;;;13.10;87.70;;;;;;5045680;28;20104;-56
2023/03/21 10:14:49;;;;;;;36.72;6.55;;;13.10;87.60;;;;;;5046195;28;20035;-57
2023/03/21 10:17:23;;;;;;;38.80;6.80;;;13.20;87.50;;;;;;5045460;28;20021;-57
2023/03/21 10:19:55;;;;;;;46.60;6.68;;;13.20;87.40;;;;;;5047191;28;20034;-57
2023/03/21 10:22:20;;;;;;;36.88;5.80;;;13.30;87.30;;;;;;5046021;28;20069;-57
2023/03/21 10:24:46;;;;;;;32.63;5.55;;;13.30;87.40;;;;;;5047112;28;20044;-57
2023/03/21 10:27:12;;;;;;;50.30;7.00;;;13.30;87.20;;;;;;5029289;28;20041;-57
2023/03/21 10:29:42;;;;;;;38.97;6.38;;;13.40;87.00;;;;;;5049965;28;20033;-57
2023/03/21 10:32:12;;;;;;;30.48;6.10;;;13.40;87.10;;;;;;5045156;28;20029;-57
2023/03/21 10:34:48;;;;;;;46.40;6.95;;;13.50;87.00;;;;;;5028046;28;20033;-57
2023/03/21 10:37:15;;;;;;;25.15;6.32;;;13.50;86.80;;;;;;5028487;28;20358;-57
2023/03/21 10:39:48;;;;;;;31.65;6.13;;;13.60;86.60;;;;;;5045952;28;20053;-57
2023/03/21 10:42:25;;;;;;;28.48;5.47;;;13.60;86.60;;;;;;5025562;28;20081;-56
2023/03/21 10:44:55;;;;;;;56.53;7.68;;;13.60;86.70;;;;;;5058155;28;20032;-57
2023/03/21 10:47:25;;;;;;;38.30;6.90;;;13.70;86.80;;;;;;5055156;28;20030;-56
2023/03/21 10:49:51;;;;;;;27.58;5.10;;;13.70;86.40;;;;;;5026825;28;20041;-57
2023/03/21 10:52:21;;;;;;;40.45;6.47;;;13.70;86.20;;;;;;5014670;28;20100;-56
2023/03/21 10:54:47;;;;;;;41.78;7.75;;;13.80;86.80;;;;;;5046185;28;20026;-57
2023/03/21 10:57:16;;;;;;;45.20;7.28;;;13.80;86.10;;;;;;5038939;28;20092;-56
2023/03/21 10:59:43;;;;;;;38.08;7.47;;;13.80;86.10;;;;;;5031311;28;20026;-57
2023/03/21 11:02:36;;;;;;;43.47;8.63;;;13.90;86.00;;;;;;5035244;28;20070;-57
2023/03/21 11:05:17;;;;;;;34.47;7.75;;;13.90;86.00;;;;;;5022277;28;20048;-57
2023/03/21 11:07:42;;;;;;;40.28;9.27;;;14.00;85.90;;;;;;5035935;28;20029;-57
2023/03/21 11:10:25;;;;;;;29.42;9.73;;;14.00;85.90;;;;;;5050728;28;20021;-56
2023/03/21 11:12:52;;;;;;;31.35;9.50;;;14.10;85.90;;;;;;5028302;28;20053;-57
2023/03/21 11:15:27;;;;;;;26.77;8.98;;;14.10;85.80;;;;;;5009337;28;22002;-57
2023/03/21 11:17:53;;;;;;;38.93;8.70;;;14.10;85.60;;;;;;5042191;28;20036;-57
2023/03/21 11:20:18;;;;;;;27.58;8.05;;;14.20;85.50;;;;;;5043984;28;20732;-57
2023/03/21 11:22:44;;;;;;;24.08;7.65;;;14.20;85.40;;;;;;5029390;28;20067;-57
2023/03/21 11:25:31;;;;;;;19.10;6.93;;;14.20;85.20;;;;;;5041848;28;20021;-57
2023/03/21 11:27:57;;;;;;;18.55;6.07;;;14.30;85.10;;;;;;5029142;28;20049;-57
2023/03/21 11:30:24;;;;;;;22.58;6.95;;;14.30;85.00;;;;;;5038261;28;20112;-57
2023/03/21 11:33:10;;;;;;;24.25;6.95;;;14.40;84.80;;;;;;5021662;28;20065;-57
2023/03/21 11:35:37;;;;;;;26.77;6.03;;;14.40;84.70;;;;;;5038876;28;20135;-57
2023/03/21 11:38:02;;;;;;;21.52;5.60;;;14.50;84.80;;;;;;5023379;28;20034;-57
2023/03/21 11:40:32;;;;;;;18.58;6.03;;;14.50;84.60;;;;;;5022452;28;20025;-57
2023/03/21 11:43:25;;;;;;;21.60;5.78;;;14.50;84.50;;;;;;5024094;28;20561;-57
2023/03/21 11:46:08;;;;;;;16.88;5.13;;;14.60;84.30;;;;;;5055742;28;20089;-57
2023/03/21 11:48:44;;;;;;;20.02;5.90;;;14.60;84.30;;;;;;5037169;28;20437;-57
2023/03/21 11:51:36;;;;;;;16.27;4.30;;;14.70;84.20;;;;;;5023451;28;20049;-57
2023/03/21 11:54:24;;;;;;;15.73;4.88;;;14.70;84.00;;;;;;5071604;28;20037;-57
2023/03/21 11:56:51;;;;;;;13.85;4.28;;;14.80;83.90;;;;;;5044481;28;20044;-56
2023/03/21 11:59:35;;;;;;;12.05;4.15;;;14.80;83.70;;;;;;5051529;28;20037;-57
2023/03/21 12:02:36;;;;;;;9.45;3.95;;;14.80;83.60;;;;;;5059600;28;20025;-57
2023/03/21 12:05:22;;;;;;;15.23;4.03;;;14.90;83.50;;;;;;5033099;28;20030;-56
2023/03/21 12:08:00;;;;;;;15.90;4.30;;;14.90;83.10;;;;;;5019576;28;20053;-57
2023/03/21 12:10:32;;;;;;;15.73;4.57;;;15.00;83.10;;;;;;5017628;28;20025;-57
2023/03/21 12:13:35;;;;;;;15.80;4.35;;;15.00;82.90;;;;;;5036543;28;20048;-57
2023/03/21 12:16:27;;;;;;;22.52;5.50;;;15.10;82.90;;;;;;5036943;28;20265;-57
2023/03/21 12:19:18;;;;;;;15.68;4.13;;;15.10;82.80;;;;;;5036189;28;20033;-57
2023/03/21 12:22:10;;;;;;;12.95;4.45;;;15.20;82.60;;;;;;5034215;28;20052;-57
2023/03/21 12:24:50;;;;;;;25.63;5.50;;;15.30;82.60;;;;;;5035022;28;20037;-57
2023/03/21 12:27:33;;;;;;;19.45;5.07;;;15.40;82.50;;;;;;5036008;28;20029;-57
2023/03/21 12:30:16;;;;;;;22.05;5.22;;;15.50;82.50;;;;;;5019577;28;20521;-57
2023/03/21 12:32:51;;;;;;;25.73;5.80;;;15.50;82.40;;;;;;5038119;28;20029;-57
2023/03/21 12:35:44;;;;;;;33.75;7.25;;;15.60;82.50;;;;;;5037282;28;20025;-57
2023/03/21 12:38:46;;;;;;;33.63;8.52;;;15.60;82.40;;;;;;5036964;28;20034;-57
2023/03/21 12:41:24;;;;;;;29.83;8.48;;;15.70;82.30;;;;;;5015953;28;20131;-57
2023/03/21 12:43:50;;;;;;;32.67;10.00;;;15.70;82.20;;;;;;5019980;28;20037;-57
2023/03/21 12:46:23;;;;;;;31.02;10.18;;;15.80;82.20;;;;;;5037527;28;20025;-57
2023/03/21 12:48:50;;;;;;;30.55;10.15;;;15.80;81.80;;;;;;5036216;28;20184;-56